Aérodrome :
LOGIN :

S'inscrire | Disclaimer

   EN    FR    IT 

 










Légende :    VFR   VFR Marginal   IFR   IFR Intensif   IFR Très Intensif
Visi : 
Plafond : 
>= 8 km
>= 3000ft
5 à 8 km
1000 à 3000 ft
1500m à 5 km
500 à 1000 ft
800 à 1500m
200 à 500 ft
< 800m
< 200 ft
Symboles :   Orages  Brouillard  Fortes neiges  Fortes précipitations  Vent > 20 kt
SIGMETs :   Divers  Orages  Givrage  Turbulence  Onde Orograph.  Cendres Volcan.







- Altitude de l'aérodrome : 183 ft
- Code IATA : HAJ


EDDV - Hanover/Langenhagen Int.

DERNIER METAR :
  • 201850Z 07004KT 9999 SCT042 BKN100 01/M01 Q1001 NOSIG

METARs EXPIRÉS :
  • 201820Z 11003KT 9999 FEW040 BKN100 02/M01 Q1001 NOSIG
  • 201750Z 15003KT 110V170 9999 FEW039 BKN100 02/M00 Q1001 NOSIG
  • 201720Z 16004KT 9999 BKN039 BKN110 02/M00 Q1001 NOSIG
  • 201650Z 16006KT 9999 BKN037 BKN045 02/M00 Q1001 NOSIG
  • 201620Z 16007KT 9999 FEW036 BKN045 03/M00 Q1001 NOSIG

TAF TAF EDDV
Valide du 20 à 18h jusqu'au 21 à 18h UTC


201700Z 2018/2118 15005KT 9999 BKN025
BECMG 2018/2021 BKN012
PROB30
TEMPO 2018/2021 4000 -RASN BKN007
TEMPO 2021/2112 4000 -SN BKN007
PROB30
TEMPO 2100/2109 1200 SN BKN003
BECMG 2106/2109 21005KT
BECMG 2112/2115 BKN020
Pas de NOTAMs connus pour ce terrain.



MET'MAP, la Météo Aéronautique d'un coup d'oeil ! - Copyright ORBIFLY Décembre 2007 - Disclaimer

ORBIFLY MET'MAP TEAM :

Programmation & Développement : Alexandra Zaïnal
Conception & Développement : Baudouin d'Aumeries
Co-Programmation & Développement : Marc-Olivier Méhu
Soutien technique & logistique : Manuel Goepfert

Contact : metmap@orbifly.com




SOURCES & CREDITS :

   NOAA